Terminal Aerodrome Forecast
Issued by NWS

Home | Current Version | Previous Version | Text Only | Print | Product List | Glossary On
Versions: 1 2 3 4 5 6 7 8 9 10 11 12 13 14
000
FTUS46 KMFR 250313 AAA
TAFOTH
TAF AMD
KOTH 250313Z 2503/2524 VRB03KT 5SM BR SCT200
     FM250900 11003KT 3SM BR BKN002 BKN200
     FM251200 09005KT P6SM SCT200
     FM252000 27006KT P6SM SKC=

USA.gov is the U.S. government's official web portal to all federal, state and local government web resources and services.